Time;durP1;ratioP1;P1;durP2;ratioP2;P2;SDS_P1;SDS_P2;PMS_P1;PMS_P2;Temp;Humidity;BMP_temperature;BMP_pressure;BME280_temperature;BME280_humidity;BME280_pressure;Samples;Min_cycle;Max_cycle;Signal;HPM_P1;HPM_P2
2022/04/27 00:00:15;;;;;;;10.77;9.77;;;;;;;;;;5082393;28;24429;-48
2022/04/27 00:02:41;;;;;;;11.03;9.93;;;;;;;;;;5083034;28;24566;-48
2022/04/27 00:05:06;;;;;;;11.03;10.03;;;;;;;;;;5086225;28;24516;-48
2022/04/27 00:07:31;;;;;;;12.03;10.83;;;;;;;;;;5084056;28;24413;-48
2022/04/27 00:09:56;;;;;;;11.30;10.20;;;;;;;;;;5080055;28;24567;-48
2022/04/27 00:12:22;;;;;;;11.50;10.40;;;;;;;;;;5085527;28;24421;-48
2022/04/27 00:14:47;;;;;;;10.98;9.98;;;;;;;;;;5086132;28;24430;-48
2022/04/27 00:17:12;;;;;;;10.90;9.88;;;;;;;;;;5084506;28;24907;-48
2022/04/27 00:19:37;;;;;;;11.30;10.20;;;;;;;;;;5082092;28;24984;-48
2022/04/27 00:22:02;;;;;;;11.00;10.00;;;;;;;;;;5085474;28;24452;-48
2022/04/27 00:24:28;;;;;;;11.70;10.50;;;;;;;;;;5080853;28;25203;-48
2022/04/27 00:26:53;;;;;;;11.30;10.30;;;;;;;;;;5085874;28;24418;-48
2022/04/27 00:29:18;;;;;;;11.68;10.50;;;;;;;;;;5085242;28;24512;-48
2022/04/27 00:31:43;;;;;;;11.45;10.32;;;;;;;;;;5076171;28;24423;-48
2022/04/27 00:34:08;;;;;;;10.93;9.83;;;;;;;;;;5084260;28;24457;-48
2022/04/27 00:36:35;;;;;;;10.87;9.93;;;;;;;;;;5081376;28;24500;-48
2022/04/27 00:39:00;;;;;;;11.10;10.10;;;;;;;;;;5085039;28;24426;-48
2022/04/27 00:41:26;;;;;;;11.50;10.40;;;;;;;;;;5082134;28;24494;-48
2022/04/27 00:43:51;;;;;;;11.43;10.33;;;;;;;;;;5085557;28;24990;-48
2022/04/27 00:46:16;;;;;;;11.20;10.10;;;;;;;;;;5080540;28;24827;-47
2022/04/27 00:48:41;;;;;;;12.20;11.10;;;;;;;;;;5083184;28;24978;-48
2022/04/27 00:51:08;;;;;;;12.10;11.00;;;;;;;;;;5076443;28;24527;-48
2022/04/27 00:53:33;;;;;;;11.75;10.68;;;;;;;;;;5082747;28;25047;-47
2022/04/27 00:55:59;;;;;;;11.70;10.57;;;;;;;;;;5082707;28;24843;-48
2022/04/27 00:58:24;;;;;;;11.10;10.10;;;;;;;;;;5085437;28;24430;-47
2022/04/27 01:00:50;;;;;;;10.67;9.70;;;;;;;;;;5081614;28;24471;-47
2022/04/27 01:03:15;;;;;;;10.95;9.85;;;;;;;;;;5086394;28;25002;-47
2022/04/27 01:05:41;;;;;;;10.40;9.50;;;;;;;;;;5084374;28;24441;-48
2022/04/27 01:08:06;;;;;;;10.77;9.88;;;;;;;;;;5085945;28;24417;-47
2022/04/27 01:10:31;;;;;;;10.60;9.60;;;;;;;;;;5081194;28;25062;-47
2022/04/27 01:12:57;;;;;;;11.05;10.05;;;;;;;;;;5083727;28;24437;-47
2022/04/27 01:15:29;;;;;;;10.40;9.40;;;;;;;;;;5083643;28;25128;-47
2022/04/27 01:17:57;;;;;;;10.80;9.80;;;;;;;;;;5084810;28;24537;-47
2022/04/27 01:20:22;;;;;;;11.02;9.98;;;;;;;;;;5079191;28;24781;-47
2022/04/27 01:22:47;;;;;;;11.00;10.00;;;;;;;;;;5085759;28;24418;-47
2022/04/27 01:25:12;;;;;;;10.80;9.80;;;;;;;;;;5074045;28;24452;-47
2022/04/27 01:27:41;;;;;;;11.20;10.10;;;;;;;;;;5083450;28;24433;-47
2022/04/27 01:30:06;;;;;;;10.55;9.63;;;;;;;;;;5081822;28;24511;-48
2022/04/27 01:32:31;;;;;;;11.50;10.40;;;;;;;;;;5081772;28;24540;-51
2022/04/27 01:34:56;;;;;;;11.13;10.02;;;;;;;;;;5083915;28;24955;-48
2022/04/27 01:40:06;;;;;;;11.15;10.05;;;;;;;;;;5077415;28;24561;-48
2022/04/27 01:42:31;;;;;;;10.50;9.60;;;;;;;;;;5083142;28;24493;-47
2022/04/27 01:44:56;;;;;;;11.02;10.02;;;;;;;;;;5084991;28;24436;-48
2022/04/27 01:47:21;;;;;;;10.90;9.80;;;;;;;;;;5088746;28;24422;-48
2022/04/27 01:49:46;;;;;;;10.52;9.55;;;;;;;;;;5086658;28;25024;-48
2022/04/27 01:54:55;;;;;;;11.20;10.20;;;;;;;;;;5085421;28;24398;-47
2022/04/27 01:57:20;;;;;;;11.07;9.98;;;;;;;;;;5087596;28;24442;-47
2022/04/27 01:59:46;;;;;;;10.80;9.80;;;;;;;;;;5085981;28;24422;-48
2022/04/27 02:02:11;;;;;;;10.97;9.90;;;;;;;;;;5087404;28;24513;-47
2022/04/27 02:04:36;;;;;;;9.80;8.90;;;;;;;;;;5080892;28;24422;-47
2022/04/27 02:07:02;;;;;;;10.05;9.15;;;;;;;;;;5085916;28;24475;-48
2022/04/27 02:09:27;;;;;;;9.50;8.70;;;;;;;;;;5086772;28;25251;-48
2022/04/27 02:11:53;;;;;;;10.32;9.43;;;;;;;;;;5082924;28;24422;-48
2022/04/27 02:14:18;;;;;;;10.57;9.48;;;;;;;;;;5085795;28;24962;-48
2022/04/27 02:16:43;;;;;;;10.23;9.32;;;;;;;;;;5086957;28;24418;-47
2022/04/27 02:19:08;;;;;;;10.47;9.47;;;;;;;;;;5088861;28;24834;-47
2022/04/27 02:21:34;;;;;;;11.15;9.85;;;;;;;;;;5087584;28;25018;-47
2022/04/27 02:23:59;;;;;;;11.13;9.63;;;;;;;;;;5086534;28;24994;-48
2022/04/27 02:26:24;;;;;;;10.40;9.40;;;;;;;;;;5086222;28;24442;-47
2022/04/27 02:28:50;;;;;;;10.10;9.10;;;;;;;;;;5079910;28;24508;-48
2022/04/27 02:31:15;;;;;;;9.88;8.88;;;;;;;;;;5086274;28;24422;-48
2022/04/27 02:33:40;;;;;;;9.90;9.00;;;;;;;;;;5086544;28;24772;-48
2022/04/27 02:36:06;;;;;;;10.27;9.37;;;;;;;;;;5085148;28;24963;-48
2022/04/27 02:38:31;;;;;;;9.70;8.90;;;;;;;;;;5085931;28;24486;-47
2022/04/27 02:40:56;;;;;;;10.50;9.50;;;;;;;;;;5086087;28;24474;-48
2022/04/27 02:43:21;;;;;;;10.50;9.50;;;;;;;;;;5087082;28;24445;-48
2022/04/27 02:45:47;;;;;;;9.80;8.90;;;;;;;;;;5083293;28;25306;-49
2022/04/27 02:48:12;;;;;;;10.23;9.23;;;;;;;;;;5085433;28;24418;-48
2022/04/27 02:53:21;;;;;;;9.90;9.00;;;;;;;;;;5081890;28;24422;-48
2022/04/27 02:55:46;;;;;;;11.00;10.00;;;;;;;;;;5076736;28;24426;-48
2022/04/27 02:58:11;;;;;;;10.40;9.50;;;;;;;;;;5084498;28;24430;-48
2022/04/27 03:00:36;;;;;;;10.80;9.90;;;;;;;;;;5084878;28;24417;-48
2022/04/27 03:03:02;;;;;;;11.00;10.00;;;;;;;;;;5087415;28;24418;-48
2022/04/27 03:05:27;;;;;;;10.40;9.40;;;;;;;;;;5085875;28;24469;-48
2022/04/27 03:07:52;;;;;;;11.10;10.10;;;;;;;;;;5079973;28;24471;-47
2022/04/27 03:10:17;;;;;;;10.60;9.70;;;;;;;;;;5075166;28;24800;-48
2022/04/27 03:12:42;;;;;;;11.57;10.47;;;;;;;;;;5087597;28;24465;-47
2022/04/27 03:15:07;;;;;;;11.18;10.07;;;;;;;;;;5087550;28;24426;-48
2022/04/27 03:17:33;;;;;;;10.43;9.53;;;;;;;;;;5086966;28;24525;-48
2022/04/27 03:19:58;;;;;;;10.07;9.18;;;;;;;;;;5085849;28;24450;-47
2022/04/27 03:22:23;;;;;;;10.70;9.70;;;;;;;;;;5087353;28;24464;-48
2022/04/27 03:24:48;;;;;;;10.60;9.70;;;;;;;;;;5084643;28;24407;-47
2022/04/27 03:27:13;;;;;;;10.10;9.10;;;;;;;;;;5086914;28;24509;-53
2022/04/27 03:29:39;;;;;;;10.10;9.20;;;;;;;;;;5087197;28;24426;-48
2022/04/27 03:32:04;;;;;;;10.70;9.70;;;;;;;;;;5088853;28;24562;-47
2022/04/27 03:34:29;;;;;;;10.00;9.10;;;;;;;;;;5088479;28;24386;-48
2022/04/27 03:36:54;;;;;;;10.70;9.80;;;;;;;;;;5088753;28;24840;-48
2022/04/27 03:39:19;;;;;;;10.15;9.25;;;;;;;;;;5083321;28;24968;-48
2022/04/27 03:41:44;;;;;;;10.60;9.60;;;;;;;;;;5077946;28;24399;-48
2022/04/27 03:44:10;;;;;;;10.95;9.95;;;;;;;;;;5086062;28;24417;-48
2022/04/27 03:46:35;;;;;;;10.35;9.35;;;;;;;;;;5088578;28;25001;-48
2022/04/27 03:49:00;;;;;;;10.40;9.60;;;;;;;;;;5088424;28;24382;-47
2022/04/27 03:51:25;;;;;;;10.80;9.90;;;;;;;;;;5088235;28;24425;-48
2022/04/27 03:53:51;;;;;;;10.53;9.53;;;;;;;;;;5072483;28;24832;-48
2022/04/27 03:56:16;;;;;;;12.50;11.40;;;;;;;;;;5082557;28;24418;-48
2022/04/27 03:58:41;;;;;;;10.40;9.50;;;;;;;;;;5088319;28;24460;-48
2022/04/27 04:01:07;;;;;;;10.73;9.73;;;;;;;;;;5086272;28;24517;-48
2022/04/27 04:03:32;;;;;;;10.67;9.77;;;;;;;;;;5094674;28;24470;-48
2022/04/27 04:05:57;;;;;;;9.60;8.80;;;;;;;;;;5087404;28;25060;-48
2022/04/27 04:08:22;;;;;;;11.00;10.00;;;;;;;;;;5082876;28;24422;-48
2022/04/27 04:10:47;;;;;;;11.15;10.15;;;;;;;;;;5075453;28;24417;-48
2022/04/27 04:13:12;;;;;;;11.90;10.80;;;;;;;;;;5084522;28;24422;-47
2022/04/27 04:15:38;;;;;;;10.20;9.20;;;;;;;;;;5085691;28;24475;-47
2022/04/27 04:18:04;;;;;;;10.02;9.02;;;;;;;;;;5087586;28;24990;-48
2022/04/27 04:20:29;;;;;;;11.65;10.65;;;;;;;;;;5087106;28;24489;-48
2022/04/27 04:22:54;;;;;;;10.90;9.90;;;;;;;;;;5085868;28;24627;-48
2022/04/27 04:30:47;;;;;;;9.40;8.60;;;;;;;;;;5086014;28;24833;-48
2022/04/27 04:33:12;;;;;;;9.90;8.75;;;;;;;;;;5084035;28;24473;-48
2022/04/27 04:35:37;;;;;;;9.00;8.20;;;;;;;;;;5078823;28;24897;-48
2022/04/27 04:38:04;;;;;;;9.20;8.40;;;;;;;;;;5076627;28;24433;-47
2022/04/27 04:40:29;;;;;;;10.48;9.48;;;;;;;;;;5076325;28;24425;-47
2022/04/27 04:42:54;;;;;;;11.83;10.73;;;;;;;;;;5079502;28;24438;-47
2022/04/27 04:45:19;;;;;;;9.70;8.80;;;;;;;;;;5077420;28;24427;-47
2022/04/27 04:47:44;;;;;;;9.90;9.10;;;;;;;;;;5079451;28;24553;-47
2022/04/27 04:50:10;;;;;;;10.57;9.57;;;;;;;;;;5079356;28;24952;-47
2022/04/27 04:52:35;;;;;;;11.10;10.00;;;;;;;;;;5083257;28;24465;-47
2022/04/27 04:55:01;;;;;;;10.10;9.20;;;;;;;;;;5081038;28;24414;-47
2022/04/27 04:57:26;;;;;;;10.20;9.20;;;;;;;;;;5082090;28;24461;-47
2022/04/27 04:59:54;;;;;;;10.40;9.40;;;;;;;;;;5082091;28;24500;-47
2022/04/27 05:02:19;;;;;;;9.50;8.60;;;;;;;;;;5074761;28;24406;-47
2022/04/27 05:04:45;;;;;;;9.10;8.30;;;;;;;;;;5063565;28;24754;-47
2022/04/27 05:07:10;;;;;;;9.77;8.77;;;;;;;;;;5070311;28;24513;-47
2022/04/27 05:09:35;;;;;;;9.43;8.48;;;;;;;;;;5079629;28;24414;-47
2022/04/27 05:12:00;;;;;;;9.90;9.10;;;;;;;;;;5080131;28;24513;-47
2022/04/27 05:14:26;;;;;;;9.20;8.47;;;;;;;;;;5081006;28;24426;-47
2022/04/27 05:16:51;;;;;;;9.30;8.50;;;;;;;;;;5082064;28;24426;-47
2022/04/27 05:19:16;;;;;;;10.60;8.90;;;;;;;;;;5076726;28;24840;-47
2022/04/27 05:21:41;;;;;;;10.20;9.20;;;;;;;;;;5078052;28;24410;-47
2022/04/27 05:24:06;;;;;;;10.02;9.13;;;;;;;;;;5082557;28;24418;-47
2022/04/27 05:26:31;;;;;;;9.53;8.63;;;;;;;;;;5085563;28;24552;-47
2022/04/27 05:31:57;;;;;;;9.30;8.40;;;;;;;;;;5071007;28;24389;-47
2022/04/27 05:34:22;;;;;;;10.18;9.18;;;;;;;;;;5070347;28;24529;-47
2022/04/27 05:36:48;;;;;;;9.73;8.73;;;;;;;;;;5070908;28;24414;-47
2022/04/27 05:39:13;;;;;;;10.20;9.30;;;;;;;;;;5079968;28;25087;-47
2022/04/27 05:41:38;;;;;;;11.75;8.40;;;;;;;;;;5085423;28;25255;-47
2022/04/27 05:44:06;;;;;;;9.50;8.68;;;;;;;;;;5089757;28;24414;-48
2022/04/27 05:46:31;;;;;;;8.82;7.93;;;;;;;;;;5087058;28;24983;-47
2022/04/27 05:48:56;;;;;;;9.98;8.98;;;;;;;;;;5091169;28;24405;-47
2022/04/27 05:51:22;;;;;;;9.93;8.90;;;;;;;;;;5086907;28;24473;-47
2022/04/27 05:53:47;;;;;;;9.40;8.50;;;;;;;;;;5088920;28;24425;-47
2022/04/27 05:56:15;;;;;;;9.15;8.25;;;;;;;;;;5081662;28;25026;-47
2022/04/27 05:58:40;;;;;;;15.88;14.18;;;;;;;;;;5086247;28;25013;-47
2022/04/27 06:01:06;;;;;;;29.85;26.75;;;;;;;;;;5087039;28;24426;-47
2022/04/27 06:03:31;;;;;;;21.30;19.03;;;;;;;;;;5085252;28;24494;-47
2022/04/27 06:05:56;;;;;;;13.77;12.47;;;;;;;;;;5085764;28;24426;-47
2022/04/27 06:08:21;;;;;;;11.30;10.17;;;;;;;;;;5087627;28;24437;-47
2022/04/27 06:10:47;;;;;;;10.40;9.50;;;;;;;;;;5089177;28;24452;-47
2022/04/27 06:13:13;;;;;;;10.50;9.60;;;;;;;;;;5088756;28;24418;-47
2022/04/27 06:15:38;;;;;;;11.20;10.20;;;;;;;;;;5087663;28;24424;-47
2022/04/27 06:18:03;;;;;;;11.43;10.33;;;;;;;;;;5082765;28;24452;-47
2022/04/27 06:20:29;;;;;;;11.03;10.03;;;;;;;;;;5086210;28;24449;-47
2022/04/27 06:22:55;;;;;;;12.03;10.93;;;;;;;;;;5086080;28;24429;-47
2022/04/27 06:25:22;;;;;;;11.03;10.13;;;;;;;;;;5088935;28;24411;-47
2022/04/27 06:27:47;;;;;;;9.52;8.73;;;;;;;;;;5086748;28;24437;-47
2022/04/27 06:30:12;;;;;;;9.50;8.60;;;;;;;;;;5086365;28;25210;-47
2022/04/27 06:32:38;;;;;;;9.00;8.20;;;;;;;;;;5088791;28;24447;-47
2022/04/27 06:35:04;;;;;;;10.10;9.20;;;;;;;;;;5089583;28;24904;-47
2022/04/27 06:37:30;;;;;;;9.15;8.35;;;;;;;;;;5089421;28;24425;-47
2022/04/27 06:39:55;;;;;;;10.40;9.50;;;;;;;;;;5089179;28;24464;-47
2022/04/27 06:42:20;;;;;;;10.60;9.70;;;;;;;;;;5089469;28;24389;-47
2022/04/27 06:44:46;;;;;;;8.60;7.90;;;;;;;;;;5087163;28;24500;-47
2022/04/27 06:47:11;;;;;;;9.23;8.37;;;;;;;;;;5089522;28;24462;-47
2022/04/27 06:49:36;;;;;;;10.20;8.23;;;;;;;;;;5089551;28;24401;-47
2022/04/27 06:52:01;;;;;;;9.88;8.88;;;;;;;;;;5089391;28;24445;-47
2022/04/27 06:54:26;;;;;;;8.80;8.00;;;;;;;;;;5089374;28;24402;-53
2022/04/27 06:56:51;;;;;;;9.40;8.40;;;;;;;;;;5089047;28;25121;-47
2022/04/27 06:59:16;;;;;;;8.53;7.83;;;;;;;;;;5088700;28;24463;-47
2022/04/27 07:01:42;;;;;;;9.35;8.45;;;;;;;;;;5089036;28;24429;-47
2022/04/27 07:04:09;;;;;;;9.87;9.00;;;;;;;;;;5088903;28;24430;-50
2022/04/27 07:06:35;;;;;;;9.40;8.50;;;;;;;;;;5089514;28;24487;-48
2022/04/27 07:09:00;;;;;;;9.30;8.50;;;;;;;;;;5088668;28;24885;-48
2022/04/27 07:11:25;;;;;;;9.10;8.20;;;;;;;;;;5088950;28;24398;-47
2022/04/27 07:13:50;;;;;;;9.20;8.40;;;;;;;;;;5088374;28;24533;-48
2022/04/27 07:16:16;;;;;;;9.93;9.03;;;;;;;;;;5088770;28;24615;-48
2022/04/27 07:18:41;;;;;;;9.80;8.90;;;;;;;;;;5088676;28;25105;-45
2022/04/27 07:21:08;;;;;;;10.45;9.35;;;;;;;;;;5085937;28;24968;-47
2022/04/27 07:23:33;;;;;;;9.18;8.38;;;;;;;;;;5089084;28;24395;-46
2022/04/27 07:25:58;;;;;;;9.25;8.45;;;;;;;;;;5088555;28;24434;-46
2022/04/27 07:28:23;;;;;;;10.82;9.80;;;;;;;;;;5088598;28;24401;-45
2022/04/27 07:30:49;;;;;;;10.57;9.60;;;;;;;;;;5087475;28;24750;-48
2022/04/27 07:33:14;;;;;;;10.20;9.30;;;;;;;;;;5081520;28;24464;-48
2022/04/27 07:35:39;;;;;;;9.10;8.30;;;;;;;;;;5088074;28;24449;-48
2022/04/27 07:38:04;;;;;;;10.60;9.50;;;;;;;;;;5088824;28;24915;-48
2022/04/27 07:40:29;;;;;;;10.07;9.00;;;;;;;;;;5088696;28;24470;-46
2022/04/27 07:42:55;;;;;;;11.20;10.10;;;;;;;;;;5087422;28;24851;-46
2022/04/27 07:45:20;;;;;;;10.90;9.90;;;;;;;;;;5087667;28;24442;-46
2022/04/27 07:47:46;;;;;;;10.93;9.93;;;;;;;;;;5088304;28;24766;-46
2022/04/27 07:50:13;;;;;;;10.20;9.40;;;;;;;;;;5088721;28;24439;-46
2022/04/27 07:52:38;;;;;;;11.05;9.95;;;;;;;;;;5088337;28;24422;-46
2022/04/27 07:55:04;;;;;;;10.60;9.55;;;;;;;;;;5086274;28;25049;-46
2022/04/27 07:57:33;;;;;;;11.25;10.25;;;;;;;;;;5087723;28;24505;-46
2022/04/27 08:00:02;;;;;;;11.00;10.00;;;;;;;;;;5088232;28;24739;-53
2022/04/27 08:02:27;;;;;;;10.73;9.73;;;;;;;;;;5088534;28;24498;-46
2022/04/27 08:04:52;;;;;;;9.80;8.90;;;;;;;;;;5087026;28;24529;-46
2022/04/27 08:07:17;;;;;;;11.70;10.70;;;;;;;;;;5088328;28;24697;-46
2022/04/27 08:09:43;;;;;;;10.63;9.63;;;;;;;;;;5087839;28;24406;-46
2022/04/27 08:12:08;;;;;;;12.52;11.23;;;;;;;;;;5087902;28;24964;-46
2022/04/27 08:14:34;;;;;;;11.73;10.70;;;;;;;;;;5088146;28;24932;-46
2022/04/27 08:17:01;;;;;;;12.65;11.35;;;;;;;;;;5084957;28;24419;-46
2022/04/27 08:19:26;;;;;;;11.90;10.80;;;;;;;;;;5088309;28;24480;-46
2022/04/27 08:21:52;;;;;;;10.50;9.40;;;;;;;;;;5087860;28;24443;-46
2022/04/27 08:24:19;;;;;;;14.10;12.90;;;;;;;;;;5087693;28;24796;-46
2022/04/27 08:26:44;;;;;;;12.95;11.75;;;;;;;;;;5081994;28;24513;-46
2022/04/27 08:29:09;;;;;;;12.70;11.60;;;;;;;;;;5065624;28;24513;-46
2022/04/27 08:31:35;;;;;;;13.10;11.90;;;;;;;;;;5065889;28;24811;-47
2022/04/27 08:34:00;;;;;;;12.63;11.52;;;;;;;;;;5066727;28;24398;-46
2022/04/27 08:36:25;;;;;;;12.10;10.80;;;;;;;;;;5070313;28;24422;-46
2022/04/27 08:38:51;;;;;;;12.68;11.45;;;;;;;;;;5087816;28;24897;-46
2022/04/27 08:41:16;;;;;;;12.00;11.00;;;;;;;;;;5087354;28;24431;-46
2022/04/27 08:43:41;;;;;;;11.80;10.80;;;;;;;;;;5087314;28;24749;-46
2022/04/27 08:46:07;;;;;;;12.13;10.97;;;;;;;;;;5087030;28;24680;-46
2022/04/27 08:48:32;;;;;;;12.90;11.77;;;;;;;;;;5085642;28;24426;-46
2022/04/27 08:51:00;;;;;;;12.67;11.57;;;;;;;;;;5086826;28;24443;-46
2022/04/27 08:53:25;;;;;;;15.30;13.95;;;;;;;;;;5087244;28;24405;-46
2022/04/27 08:55:53;;;;;;;12.77;11.57;;;;;;;;;;5086971;28;24988;-46
2022/04/27 08:58:20;;;;;;;12.77;11.68;;;;;;;;;;5085131;28;24437;-46
2022/04/27 09:00:45;;;;;;;14.80;13.50;;;;;;;;;;5086757;28;24927;-46
2022/04/27 09:03:25;;;;;;;13.38;12.18;;;;;;;;;;5086864;28;24417;-46
2022/04/27 09:05:52;;;;;;;13.25;12.15;;;;;;;;;;5086979;28;24393;-47
2022/04/27 09:08:17;;;;;;;12.70;11.50;;;;;;;;;;5085732;28;24437;-47
2022/04/27 09:10:43;;;;;;;12.23;11.07;;;;;;;;;;5081924;28;24988;-46
2022/04/27 09:13:08;;;;;;;12.20;11.20;;;;;;;;;;5084900;28;24526;-46
2022/04/27 09:15:33;;;;;;;12.90;11.70;;;;;;;;;;5084772;28;24425;-46
2022/04/27 09:20:52;;;;;;;11.63;10.63;;;;;;;;;;5086497;28;24421;-47
2022/04/27 09:23:24;;;;;;;10.67;9.67;;;;;;;;;;5087279;28;24467;-46
2022/04/27 09:25:51;;;;;;;12.73;11.52;;;;;;;;;;5084250;28;25021;-47
2022/04/27 09:28:16;;;;;;;12.05;11.00;;;;;;;;;;5087130;28;24406;-46
2022/04/27 09:30:42;;;;;;;11.40;10.40;;;;;;;;;;5087351;28;24477;-46
2022/04/27 09:33:07;;;;;;;12.80;11.70;;;;;;;;;;5086771;28;24940;-46
2022/04/27 09:35:34;;;;;;;13.13;12.02;;;;;;;;;;5084882;28;25206;-46
2022/04/27 09:38:21;;;;;;;12.80;11.60;;;;;;;;;;5087377;28;24455;-47
2022/04/27 09:40:47;;;;;;;12.32;11.05;;;;;;;;;;5087116;28;24395;-46
2022/04/27 09:43:13;;;;;;;12.52;11.52;;;;;;;;;;5086807;28;24432;-47
2022/04/27 09:45:39;;;;;;;11.70;10.60;;;;;;;;;;5086116;28;24438;-47
2022/04/27 09:48:04;;;;;;;10.80;9.90;;;;;;;;;;5086730;28;24425;-46
2022/04/27 09:50:44;;;;;;;12.30;11.20;;;;;;;;;;5087232;28;25081;-46
2022/04/27 09:53:10;;;;;;;10.68;9.57;;;;;;;;;;5085759;28;24509;-46
2022/04/27 09:55:36;;;;;;;9.20;8.45;;;;;;;;;;5086743;28;24493;-47
2022/04/27 09:58:02;;;;;;;11.30;10.30;;;;;;;;;;5086807;28;24584;-46
2022/04/27 10:00:29;;;;;;;11.50;10.50;;;;;;;;;;5087115;28;24399;-46
2022/04/27 10:02:56;;;;;;;11.53;10.53;;;;;;;;;;5085712;28;24387;-46
2022/04/27 10:05:22;;;;;;;12.23;11.13;;;;;;;;;;5087801;28;24936;-46
2022/04/27 10:07:48;;;;;;;10.68;9.68;;;;;;;;;;5090265;28;24406;-46
2022/04/27 10:10:16;;;;;;;9.90;8.90;;;;;;;;;;5085400;28;24556;-46
2022/04/27 10:12:41;;;;;;;7.60;7.00;;;;;;;;;;5069982;28;24505;-46
2022/04/27 10:15:07;;;;;;;5.78;5.30;;;;;;;;;;5084770;28;24567;-46
2022/04/27 10:17:33;;;;;;;7.30;6.70;;;;;;;;;;5090698;28;24398;-46
2022/04/27 10:19:58;;;;;;;6.57;5.97;;;;;;;;;;5090495;28;24413;-46
2022/04/27 10:22:31;;;;;;;7.53;6.93;;;;;;;;;;5090171;28;24391;-47
2022/04/27 10:24:56;;;;;;;7.27;6.63;;;;;;;;;;5089214;28;24418;-46
2022/04/27 10:27:34;;;;;;;8.00;7.20;;;;;;;;;;5089878;28;24748;-46
2022/04/27 10:30:01;;;;;;;10.15;9.25;;;;;;;;;;5089909;28;24467;-46
2022/04/27 10:32:35;;;;;;;9.43;8.57;;;;;;;;;;5090372;28;24854;-47
2022/04/27 10:35:14;;;;;;;9.25;7.80;;;;;;;;;;5089062;28;24447;-47
2022/04/27 10:37:48;;;;;;;8.35;7.55;;;;;;;;;;5089969;28;24772;-46
2022/04/27 10:40:32;;;;;;;9.18;8.27;;;;;;;;;;5089869;28;24400;-46
2022/04/27 10:43:00;;;;;;;8.20;7.40;;;;;;;;;;5089903;28;24545;-47
2022/04/27 10:45:27;;;;;;;8.10;7.40;;;;;;;;;;5089232;28;24418;-47
2022/04/27 10:47:52;;;;;;;8.30;7.50;;;;;;;;;;5089536;28;24432;-46
2022/04/27 10:50:18;;;;;;;7.00;6.40;;;;;;;;;;5089610;28;24402;-46
2022/04/27 10:52:53;;;;;;;7.20;6.60;;;;;;;;;;5087439;28;24557;-46
2022/04/27 10:55:42;;;;;;;8.70;8.00;;;;;;;;;;5089938;28;24378;-46
2022/04/27 10:58:13;;;;;;;8.13;7.43;;;;;;;;;;5089759;28;24418;-46
2022/04/27 11:00:57;;;;;;;8.23;7.53;;;;;;;;;;5089708;28;24421;-47
2022/04/27 11:03:22;;;;;;;7.90;7.07;;;;;;;;;;5087662;28;24495;-46
2022/04/27 11:05:49;;;;;;;8.00;7.20;;;;;;;;;;5089402;28;24382;-47
2022/04/27 11:08:25;;;;;;;7.05;6.45;;;;;;;;;;5089555;28;25024;-47
2022/04/27 11:10:54;;;;;;;8.00;7.30;;;;;;;;;;5072295;28;24430;-46
2022/04/27 11:13:25;;;;;;;6.50;5.80;;;;;;;;;;5085756;28;24532;-47
2022/04/27 11:15:50;;;;;;;6.50;5.90;;;;;;;;;;5089382;28;24461;-46
2022/04/27 11:18:16;;;;;;;6.93;6.03;;;;;;;;;;5086019;28;25250;-46
2022/04/27 11:20:43;;;;;;;6.07;5.57;;;;;;;;;;5088718;28;25307;-46
2022/04/27 11:23:19;;;;;;;5.70;4.80;;;;;;;;;;5088771;28;24509;-47
2022/04/27 11:25:48;;;;;;;4.30;4.00;;;;;;;;;;5089150;28;24400;-47
2022/04/27 11:28:14;;;;;;;8.43;5.80;;;;;;;;;;5088836;28;24451;-47
2022/04/27 11:30:39;;;;;;;6.10;5.60;;;;;;;;;;5089204;28;24459;-47
2022/04/27 11:33:04;;;;;;;5.97;5.47;;;;;;;;;;5086549;28;24433;-47
2022/04/27 11:35:38;;;;;;;6.60;6.00;;;;;;;;;;5088974;28;24668;-47
2022/04/27 11:38:04;;;;;;;5.60;5.20;;;;;;;;;;5088247;28;24424;-46
2022/04/27 11:40:29;;;;;;;6.93;6.43;;;;;;;;;;5088821;28;24399;-47
2022/04/27 11:42:57;;;;;;;8.90;8.00;;;;;;;;;;5085844;28;21309;-47
2022/04/27 11:45:23;;;;;;;8.05;7.35;;;;;;;;;;5088518;28;24393;-47
2022/04/27 11:48:16;;;;;;;8.25;7.55;;;;;;;;;;5088927;28;24752;-46
2022/04/27 11:50:42;;;;;;;8.95;7.70;;;;;;;;;;5085452;28;24974;-46
2022/04/27 11:53:11;;;;;;;8.18;7.47;;;;;;;;;;5086440;28;24426;-47
2022/04/27 11:55:36;;;;;;;9.98;8.38;;;;;;;;;;5088442;28;24401;-46
2022/04/27 11:58:02;;;;;;;8.70;8.00;;;;;;;;;;5088053;28;24760;-47
2022/04/27 12:00:28;;;;;;;6.70;6.10;;;;;;;;;;5087879;28;24429;-46
2022/04/27 12:03:04;;;;;;;5.57;5.17;;;;;;;;;;5088957;28;24469;-46
2022/04/27 12:05:34;;;;;;;5.95;5.45;;;;;;;;;;5088538;28;24382;-47
2022/04/27 12:08:01;;;;;;;6.38;5.82;;;;;;;;;;5081095;28;24434;-47
2022/04/27 12:10:27;;;;;;;7.72;6.97;;;;;;;;;;5067701;28;24383;-47
2022/04/27 12:12:52;;;;;;;7.70;7.10;;;;;;;;;;5087478;28;25025;-46
2022/04/27 12:15:21;;;;;;;7.80;7.00;;;;;;;;;;5088079;28;24803;-46
2022/04/27 12:17:50;;;;;;;6.40;5.90;;;;;;;;;;5087455;28;24509;-47
2022/04/27 12:20:26;;;;;;;7.60;7.00;;;;;;;;;;5087557;28;24467;-47
2022/04/27 12:22:55;;;;;;;7.90;7.20;;;;;;;;;;5085783;28;24461;-47
2022/04/27 12:25:21;;;;;;;8.07;7.40;;;;;;;;;;5087994;28;24437;-47
2022/04/27 12:27:48;;;;;;;7.60;6.90;;;;;;;;;;5087589;28;24927;-47
2022/04/27 12:30:17;;;;;;;7.25;6.65;;;;;;;;;;5087534;28;24509;-47
2022/04/27 12:32:43;;;;;;;7.63;6.82;;;;;;;;;;5086126;28;24462;-47
2022/04/27 12:37:53;;;;;;;6.35;5.22;;;;;;;;;;5087752;28;24855;-47
2022/04/27 12:40:18;;;;;;;6.60;6.00;;;;;;;;;;5087734;28;24473;-47
2022/04/27 12:42:58;;;;;;;6.50;5.90;;;;;;;;;;5085321;28;24569;-47
2022/04/27 12:45:24;;;;;;;6.28;5.68;;;;;;;;;;5087439;28;24393;-47
2022/04/27 12:47:50;;;;;;;5.97;5.47;;;;;;;;;;5087755;28;24423;-47
2022/04/27 12:50:15;;;;;;;6.60;6.00;;;;;;;;;;5088034;28;24397;-47
2022/04/27 12:52:41;;;;;;;6.40;5.90;;;;;;;;;;5086878;28;24426;-48
2022/04/27 12:55:10;;;;;;;6.10;5.60;;;;;;;;;;5085237;28;24450;-46
2022/04/27 12:57:41;;;;;;;6.40;5.80;;;;;;;;;;5085236;28;24405;-47
2022/04/27 13:00:07;;;;;;;6.20;5.70;;;;;;;;;;5087590;28;24912;-47
2022/04/27 13:02:33;;;;;;;5.90;5.40;;;;;;;;;;5087302;28;24405;-46
2022/04/27 13:04:58;;;;;;;5.70;5.20;;;;;;;;;;5087234;28;24389;-47
2022/04/27 13:07:23;;;;;;;5.83;5.33;;;;;;;;;;5085443;28;24521;-47
2022/04/27 13:12:35;;;;;;;5.80;5.20;;;;;;;;;;5073055;28;24417;-47
2022/04/27 13:15:02;;;;;;;5.18;4.68;;;;;;;;;;5065342;28;24383;-47
2022/04/27 13:17:27;;;;;;;5.90;5.40;;;;;;;;;;5065267;28;24473;-47
2022/04/27 13:19:52;;;;;;;5.88;5.38;;;;;;;;;;5073603;28;24842;-47
2022/04/27 13:22:17;;;;;;;4.90;4.50;;;;;;;;;;5086882;28;24394;-47
2022/04/27 13:24:42;;;;;;;5.30;4.80;;;;;;;;;;5086500;28;25026;-47
2022/04/27 13:27:07;;;;;;;5.23;4.83;;;;;;;;;;5087046;28;24431;-47
2022/04/27 13:29:32;;;;;;;4.53;4.13;;;;;;;;;;5086462;28;24457;-47
2022/04/27 13:31:58;;;;;;;5.40;4.90;;;;;;;;;;5086041;28;24422;-47
2022/04/27 13:34:23;;;;;;;6.18;5.57;;;;;;;;;;5087190;28;24399;-47
2022/04/27 13:36:48;;;;;;;5.50;5.00;;;;;;;;;;5087220;28;24916;-47
2022/04/27 13:39:14;;;;;;;5.22;4.82;;;;;;;;;;5086538;28;24417;-47
2022/04/27 13:41:39;;;;;;;5.00;4.60;;;;;;;;;;5089567;28;24421;-47
2022/04/27 13:44:04;;;;;;;5.90;5.40;;;;;;;;;;5090595;28;24390;-47
2022/04/27 13:46:29;;;;;;;5.30;4.90;;;;;;;;;;5091329;28;24912;-48
2022/04/27 13:48:55;;;;;;;5.85;5.35;;;;;;;;;;5090765;28;24393;-48
2022/04/27 13:51:20;;;;;;;6.10;5.60;;;;;;;;;;5088352;28;24420;-47
2022/04/27 13:53:45;;;;;;;6.47;5.97;;;;;;;;;;5090612;28;24402;-47
2022/04/27 13:56:10;;;;;;;5.60;5.10;;;;;;;;;;5090565;28;24902;-47
2022/04/27 13:58:35;;;;;;;5.73;5.23;;;;;;;;;;5090450;28;24417;-47
2022/04/27 14:01:01;;;;;;;6.40;5.90;;;;;;;;;;5088712;28;24395;-47
2022/04/27 14:03:26;;;;;;;5.85;5.35;;;;;;;;;;5081129;28;24426;-47
2022/04/27 14:05:52;;;;;;;6.30;5.80;;;;;;;;;;5085435;28;24964;-47
2022/04/27 14:08:17;;;;;;;5.70;5.20;;;;;;;;;;5087184;28;24420;-47
2022/04/27 14:10:42;;;;;;;5.63;5.13;;;;;;;;;;5086390;28;24936;-47
2022/04/27 14:13:13;;;;;;;5.70;5.20;;;;;;;;;;5085281;28;24994;-47
2022/04/27 14:15:38;;;;;;;6.93;5.60;;;;;;;;;;5090701;28;24414;-48
2022/04/27 14:18:15;;;;;;;6.30;5.80;;;;;;;;;;5090075;28;24506;-47
2022/04/27 14:20:41;;;;;;;5.80;5.30;;;;;;;;;;5089170;28;24419;-48
2022/04/27 14:23:07;;;;;;;5.83;5.33;;;;;;;;;;5087892;28;24429;-47
2022/04/27 14:25:33;;;;;;;5.50;5.00;;;;;;;;;;5090212;28;24440;-48
2022/04/27 14:27:58;;;;;;;5.43;4.93;;;;;;;;;;5087277;28;24518;-47
2022/04/27 14:30:23;;;;;;;4.70;4.30;;;;;;;;;;5089893;28;24596;-47
2022/04/27 14:32:49;;;;;;;5.47;5.00;;;;;;;;;;5089895;28;24973;-47
2022/04/27 14:35:14;;;;;;;4.70;4.20;;;;;;;;;;5088784;28;24414;-47
2022/04/27 14:37:40;;;;;;;4.63;4.30;;;;;;;;;;5088588;28;24406;-48
2022/04/27 14:40:05;;;;;;;4.60;4.20;;;;;;;;;;5089134;28;24833;-47
2022/04/27 14:42:32;;;;;;;4.97;3.87;;;;;;;;;;5089719;28;24387;-48
2022/04/27 14:44:57;;;;;;;3.80;3.50;;;;;;;;;;5089584;28;24396;-48
2022/04/27 14:47:22;;;;;;;4.40;4.10;;;;;;;;;;5089380;28;24395;-47
2022/04/27 14:49:47;;;;;;;6.23;4.50;;;;;;;;;;5087684;28;24448;-47
2022/04/27 14:52:13;;;;;;;4.05;3.65;;;;;;;;;;5089421;28;24386;-47